sensor_id;sensor_type;location;lat;lon;timestamp;temperature;humidity
25346;DHT22;13300;51.032;3.710;2022-09-12T00:01:21;17.20;99.90
25346;DHT22;13300;51.032;3.710;2022-09-12T00:03:50;17.20;99.90
25346;DHT22;13300;51.032;3.710;2022-09-12T00:06:26;17.20;99.90
25346;DHT22;13300;51.032;3.710;2022-09-12T00:08:58;17.20;99.90
25346;DHT22;13300;51.032;3.710;2022-09-12T00:11:25;17.20;99.90
25346;DHT22;13300;51.032;3.710;2022-09-12T00:13:55;17.20;99.90
25346;DHT22;13300;51.032;3.710;2022-09-12T00:16:23;17.10;99.90
25346;DHT22;13300;51.032;3.710;2022-09-12T00:18:50;17.10;99.90
25346;DHT22;13300;51.032;3.710;2022-09-12T00:21:17;17.10;99.90
25346;DHT22;13300;51.032;3.710;2022-09-12T00:23:43;17.10;99.90
25346;DHT22;13300;51.032;3.710;2022-09-12T00:26:09;17.10;99.90
25346;DHT22;13300;51.032;3.710;2022-09-12T00:28:36;17.10;99.90
25346;DHT22;13300;51.032;3.710;2022-09-12T00:31:05;17.10;99.90
25346;DHT22;13300;51.032;3.710;2022-09-12T00:33:31;17.10;99.90
25346;DHT22;13300;51.032;3.710;2022-09-12T00:35:56;17.10;99.90
25346;DHT22;13300;51.032;3.710;2022-09-12T00:38:25;17.10;99.90
25346;DHT22;13300;51.032;3.710;2022-09-12T00:40:50;17.10;99.90
25346;DHT22;13300;51.032;3.710;2022-09-12T00:43:39;17.10;99.90
25346;DHT22;13300;51.032;3.710;2022-09-12T00:46:27;17.10;99.90
25346;DHT22;13300;51.032;3.710;2022-09-12T00:48:59;17.10;99.90
25346;DHT22;13300;51.032;3.710;2022-09-12T00:51:27;17.10;99.90
25346;DHT22;13300;51.032;3.710;2022-09-12T00:53:54;17.00;99.90
25346;DHT22;13300;51.032;3.710;2022-09-12T00:56:21;17.00;99.90
25346;DHT22;13300;51.032;3.710;2022-09-12T00:59:02;16.90;99.90
25346;DHT22;13300;51.032;3.710;2022-09-12T01:01:30;17.00;99.90
25346;DHT22;13300;51.032;3.710;2022-09-12T01:03:55;16.90;99.90
25346;DHT22;13300;51.032;3.710;2022-09-12T01:06:26;16.90;99.90
25346;DHT22;13300;51.032;3.710;2022-09-12T01:08:53;16.90;99.90
25346;DHT22;13300;51.032;3.710;2022-09-12T01:11:20;16.90;99.90
25346;DHT22;13300;51.032;3.710;2022-09-12T01:13:47;16.90;99.90
25346;DHT22;13300;51.032;3.710;2022-09-12T01:16:13;16.90;99.90
25346;DHT22;13300;51.032;3.710;2022-09-12T01:18:57;16.90;99.90
25346;DHT22;13300;51.032;3.710;2022-09-12T01:22:00;16.90;99.90
25346;DHT22;13300;51.032;3.710;2022-09-12T01:24:41;16.90;99.90
25346;DHT22;13300;51.032;3.710;2022-09-12T01:30:27;16.80;99.90
25346;DHT22;13300;51.032;3.710;2022-09-12T01:33:11;16.80;99.90
25346;DHT22;13300;51.032;3.710;2022-09-12T01:35:44;16.80;99.90
25346;DHT22;13300;51.032;3.710;2022-09-12T01:38:28;16.80;99.90
25346;DHT22;13300;51.032;3.710;2022-09-12T01:44:07;16.80;99.90
25346;DHT22;13300;51.032;3.710;2022-09-12T01:46:56;16.80;99.90
25346;DHT22;13300;51.032;3.710;2022-09-12T01:49:51;16.70;99.90
25346;DHT22;13300;51.032;3.710;2022-09-12T01:52:28;16.70;99.90
25346;DHT22;13300;51.032;3.710;2022-09-12T01:55:12;16.70;99.90
25346;DHT22;13300;51.032;3.710;2022-09-12T01:57:50;16.70;99.90
25346;DHT22;13300;51.032;3.710;2022-09-12T02:00:18;16.70;99.90
25346;DHT22;13300;51.032;3.710;2022-09-12T02:02:59;16.70;99.90
25346;DHT22;13300;51.032;3.710;2022-09-12T02:05:32;16.70;99.90
25346;DHT22;13300;51.032;3.710;2022-09-12T02:08:07;16.60;99.90
25346;DHT22;13300;51.032;3.710;2022-09-12T02:10:46;16.70;99.90
25346;DHT22;13300;51.032;3.710;2022-09-12T02:13:25;16.70;99.90
25346;DHT22;13300;51.032;3.710;2022-09-12T02:15:58;16.60;99.90
25346;DHT22;13300;51.032;3.710;2022-09-12T02:18:29;16.70;99.90
25346;DHT22;13300;51.032;3.710;2022-09-12T02:20:56;16.70;99.90
25346;DHT22;13300;51.032;3.710;2022-09-12T02:23:26;16.60;99.90
25346;DHT22;13300;51.032;3.710;2022-09-12T02:25:56;16.70;99.90
25346;DHT22;13300;51.032;3.710;2022-09-12T02:28:30;16.50;99.90
25346;DHT22;13300;51.032;3.710;2022-09-12T02:37:17;16.60;99.90
25346;DHT22;13300;51.032;3.710;2022-09-12T02:39:45;16.60;99.90
25346;DHT22;13300;51.032;3.710;2022-09-12T02:42:11;16.60;99.90
25346;DHT22;13300;51.032;3.710;2022-09-12T02:44:37;16.60;99.90
25346;DHT22;13300;51.032;3.710;2022-09-12T02:47:25;16.50;99.90
25346;DHT22;13300;51.032;3.710;2022-09-12T02:49:52;16.60;99.90
25346;DHT22;13300;51.032;3.710;2022-09-12T02:52:18;16.50;99.90
25346;DHT22;13300;51.032;3.710;2022-09-12T02:54:45;16.50;99.90
25346;DHT22;13300;51.032;3.710;2022-09-12T02:57:18;16.50;99.90
25346;DHT22;13300;51.032;3.710;2022-09-12T02:59:45;16.50;99.90
25346;DHT22;13300;51.032;3.710;2022-09-12T03:22:21;16.40;99.90
25346;DHT22;13300;51.032;3.710;2022-09-12T03:27:53;16.40;99.90
25346;DHT22;13300;51.032;3.710;2022-09-12T03:30:20;16.30;99.90
25346;DHT22;13300;51.032;3.710;2022-09-12T03:32:50;16.30;99.90
25346;DHT22;13300;51.032;3.710;2022-09-12T03:35:18;16.30;99.90
25346;DHT22;13300;51.032;3.710;2022-09-12T03:37:44;16.30;99.90
25346;DHT22;13300;51.032;3.710;2022-09-12T03:40:11;16.30;99.90
25346;DHT22;13300;51.032;3.710;2022-09-12T03:42:37;16.30;99.90
25346;DHT22;13300;51.032;3.710;2022-09-12T03:45:04;16.30;99.90
25346;DHT22;13300;51.032;3.710;2022-09-12T03:47:30;16.30;99.90
25346;DHT22;13300;51.032;3.710;2022-09-12T03:49:56;16.30;99.90
25346;DHT22;13300;51.032;3.710;2022-09-12T03:52:22;16.30;99.90
25346;DHT22;13300;51.032;3.710;2022-09-12T03:54:48;16.30;99.90
25346;DHT22;13300;51.032;3.710;2022-09-12T03:57:13;16.30;99.90
25346;DHT22;13300;51.032;3.710;2022-09-12T03:59:39;16.30;99.90
25346;DHT22;13300;51.032;3.710;2022-09-12T04:02:05;16.30;99.90
25346;DHT22;13300;51.032;3.710;2022-09-12T04:04:30;16.20;99.90
25346;DHT22;13300;51.032;3.710;2022-09-12T04:06:56;16.20;99.90
25346;DHT22;13300;51.032;3.710;2022-09-12T04:09:22;16.20;99.90
25346;DHT22;13300;51.032;3.710;2022-09-12T04:11:48;16.20;99.90
25346;DHT22;13300;51.032;3.710;2022-09-12T04:14:13;16.20;99.90
25346;DHT22;13300;51.032;3.710;2022-09-12T04:16:39;16.10;99.90
25346;DHT22;13300;51.032;3.710;2022-09-12T04:19:05;16.20;99.90
25346;DHT22;13300;51.032;3.710;2022-09-12T04:21:31;16.20;99.90
25346;DHT22;13300;51.032;3.710;2022-09-12T04:23:57;16.10;99.90
25346;DHT22;13300;51.032;3.710;2022-09-12T04:26:22;16.10;99.90
25346;DHT22;13300;51.032;3.710;2022-09-12T04:28:52;16.00;99.90
25346;DHT22;13300;51.032;3.710;2022-09-12T04:31:22;16.00;99.90
25346;DHT22;13300;51.032;3.710;2022-09-12T04:33:59;16.00;99.90
25346;DHT22;13300;51.032;3.710;2022-09-12T04:36:27;15.90;99.90
25346;DHT22;13300;51.032;3.710;2022-09-12T04:38:53;15.90;99.90
25346;DHT22;13300;51.032;3.710;2022-09-12T04:41:22;15.90;99.90
25346;DHT22;13300;51.032;3.710;2022-09-12T04:43:53;15.80;99.90
25346;DHT22;13300;51.032;3.710;2022-09-12T04:46:19;15.80;99.90
25346;DHT22;13300;51.032;3.710;2022-09-12T04:48:46;15.80;99.90
25346;DHT22;13300;51.032;3.710;2022-09-12T04:51:23;15.80;99.90
25346;DHT22;13300;51.032;3.710;2022-09-12T04:53:56;15.70;99.90
25346;DHT22;13300;51.032;3.710;2022-09-12T04:56:22;15.70;99.90
25346;DHT22;13300;51.032;3.710;2022-09-12T04:58:48;15.70;99.90
25346;DHT22;13300;51.032;3.710;2022-09-12T05:01:19;15.70;99.90
25346;DHT22;13300;51.032;3.710;2022-09-12T05:03:46;15.70;99.90
25346;DHT22;13300;51.032;3.710;2022-09-12T05:06:33;15.70;99.90
25346;DHT22;13300;51.032;3.710;2022-09-12T05:09:00;15.70;99.90
25346;DHT22;13300;51.032;3.710;2022-09-12T05:11:29;15.70;99.90
25346;DHT22;13300;51.032;3.710;2022-09-12T05:13:55;15.70;99.90
25346;DHT22;13300;51.032;3.710;2022-09-12T05:16:22;15.70;99.90
25346;DHT22;13300;51.032;3.710;2022-09-12T05:18:48;15.70;99.90
25346;DHT22;13300;51.032;3.710;2022-09-12T05:21:17;15.60;99.90
25346;DHT22;13300;51.032;3.710;2022-09-12T05:23:43;15.70;99.90
25346;DHT22;13300;51.032;3.710;2022-09-12T05:26:13;15.70;99.90
25346;DHT22;13300;51.032;3.710;2022-09-12T05:28:40;15.70;99.90
25346;DHT22;13300;51.032;3.710;2022-09-12T05:33:37;15.70;99.90
25346;DHT22;13300;51.032;3.710;2022-09-12T05:36:05;15.80;99.90
25346;DHT22;13300;51.032;3.710;2022-09-12T05:38:33;15.70;99.90
25346;DHT22;13300;51.032;3.710;2022-09-12T05:41:06;15.70;99.90
25346;DHT22;13300;51.032;3.710;2022-09-12T05:43:33;15.70;99.90
25346;DHT22;13300;51.032;3.710;2022-09-12T05:46:00;15.60;99.90
25346;DHT22;13300;51.032;3.710;2022-09-12T05:48:26;15.60;99.90
25346;DHT22;13300;51.032;3.710;2022-09-12T05:50:59;15.60;99.90
25346;DHT22;13300;51.032;3.710;2022-09-12T05:53:27;15.70;99.90
25346;DHT22;13300;51.032;3.710;2022-09-12T05:56:16;15.80;99.90
25346;DHT22;13300;51.032;3.710;2022-09-12T05:58:47;15.80;99.90
25346;DHT22;13300;51.032;3.710;2022-09-12T06:01:17;15.90;99.90
25346;DHT22;13300;51.032;3.710;2022-09-12T06:03:49;16.00;99.90
25346;DHT22;13300;51.032;3.710;2022-09-12T06:06:20;16.20;99.90
25346;DHT22;13300;51.032;3.710;2022-09-12T06:08:50;16.30;99.90
25346;DHT22;13300;51.032;3.710;2022-09-12T06:11:25;16.50;99.90
25346;DHT22;13300;51.032;3.710;2022-09-12T06:13:51;16.70;99.90
25346;DHT22;13300;51.032;3.710;2022-09-12T06:16:19;16.80;99.90
25346;DHT22;13300;51.032;3.710;2022-09-12T06:18:47;17.00;99.90
25346;DHT22;13300;51.032;3.710;2022-09-12T06:21:13;17.20;99.90
25346;DHT22;13300;51.032;3.710;2022-09-12T06:23:39;17.40;99.90
25346;DHT22;13300;51.032;3.710;2022-09-12T06:26:07;17.60;99.90
25346;DHT22;13300;51.032;3.710;2022-09-12T06:28:35;17.80;99.90
25346;DHT22;13300;51.032;3.710;2022-09-12T06:31:06;18.00;99.90
25346;DHT22;13300;51.032;3.710;2022-09-12T06:33:36;18.10;99.90
25346;DHT22;13300;51.032;3.710;2022-09-12T06:38:29;18.80;99.90
25346;DHT22;13300;51.032;3.710;2022-09-12T06:40:56;19.00;99.90
25346;DHT22;13300;51.032;3.710;2022-09-12T06:43:22;19.80;99.90
25346;DHT22;13300;51.032;3.710;2022-09-12T06:45:49;20.80;99.90
25346;DHT22;13300;51.032;3.710;2022-09-12T06:48:14;21.20;99.90
25346;DHT22;13300;51.032;3.710;2022-09-12T06:50:40;21.50;99.90
25346;DHT22;13300;51.032;3.710;2022-09-12T06:53:06;21.60;99.90
25346;DHT22;13300;51.032;3.710;2022-09-12T06:55:32;21.40;99.90
25346;DHT22;13300;51.032;3.710;2022-09-12T06:57:58;20.70;99.90
25346;DHT22;13300;51.032;3.710;2022-09-12T07:00:24;20.70;99.90
25346;DHT22;13300;51.032;3.710;2022-09-12T07:02:53;20.90;99.90
25346;DHT22;13300;51.032;3.710;2022-09-12T07:05:21;20.60;99.90
25346;DHT22;13300;51.032;3.710;2022-09-12T07:07:47;21.00;99.90
25346;DHT22;13300;51.032;3.710;2022-09-12T07:10:13;21.50;99.90
25346;DHT22;13300;51.032;3.710;2022-09-12T07:12:39;21.80;99.90
25346;DHT22;13300;51.032;3.710;2022-09-12T07:15:04;21.70;99.90
25346;DHT22;13300;51.032;3.710;2022-09-12T07:17:30;21.50;99.90
25346;DHT22;13300;51.032;3.710;2022-09-12T07:19:56;21.90;99.90
25346;DHT22;13300;51.032;3.710;2022-09-12T07:22:22;23.10;99.90
25346;DHT22;13300;51.032;3.710;2022-09-12T07:24:47;23.00;99.90
25346;DHT22;13300;51.032;3.710;2022-09-12T07:27:13;23.70;99.90
25346;DHT22;13300;51.032;3.710;2022-09-12T07:29:39;23.60;99.90
25346;DHT22;13300;51.032;3.710;2022-09-12T07:32:05;23.00;99.90
25346;DHT22;13300;51.032;3.710;2022-09-12T07:34:31;23.60;99.90
25346;DHT22;13300;51.032;3.710;2022-09-12T07:36:57;23.90;99.90
25346;DHT22;13300;51.032;3.710;2022-09-12T07:39:23;23.40;99.90
25346;DHT22;13300;51.032;3.710;2022-09-12T07:41:48;23.80;99.90
25346;DHT22;13300;51.032;3.710;2022-09-12T07:44:14;23.00;99.90
25346;DHT22;13300;51.032;3.710;2022-09-12T07:46:40;23.00;99.90
25346;DHT22;13300;51.032;3.710;2022-09-12T07:49:05;23.70;99.90
25346;DHT22;13300;51.032;3.710;2022-09-12T07:51:32;24.80;99.90
25346;DHT22;13300;51.032;3.710;2022-09-12T07:53:58;24.70;99.90
25346;DHT22;13300;51.032;3.710;2022-09-12T07:56:25;24.40;99.90
25346;DHT22;13300;51.032;3.710;2022-09-12T07:58:51;23.70;99.90
25346;DHT22;13300;51.032;3.710;2022-09-12T08:01:19;23.70;99.90
25346;DHT22;13300;51.032;3.710;2022-09-12T08:03:47;23.90;99.90
25346;DHT22;13300;51.032;3.710;2022-09-12T08:06:15;24.30;99.90
25346;DHT22;13300;51.032;3.710;2022-09-12T08:08:44;25.20;99.90
25346;DHT22;13300;51.032;3.710;2022-09-12T08:11:12;25.50;99.90
25346;DHT22;13300;51.032;3.710;2022-09-12T08:13:39;26.50;99.90
25346;DHT22;13300;51.032;3.710;2022-09-12T08:16:16;26.60;99.90
25346;DHT22;13300;51.032;3.710;2022-09-12T08:18:43;27.10;99.90
25346;DHT22;13300;51.032;3.710;2022-09-12T08:21:21;28.10;99.90
25346;DHT22;13300;51.032;3.710;2022-09-12T08:23:54;27.50;99.90
25346;DHT22;13300;51.032;3.710;2022-09-12T08:26:21;27.80;99.90
25346;DHT22;13300;51.032;3.710;2022-09-12T08:28:47;28.40;99.90
25346;DHT22;13300;51.032;3.710;2022-09-12T08:31:16;28.80;99.90
25346;DHT22;13300;51.032;3.710;2022-09-12T08:33:42;28.50;99.90
25346;DHT22;13300;51.032;3.710;2022-09-12T08:36:31;27.20;99.90
25346;DHT22;13300;51.032;3.710;2022-09-12T08:38:58;27.50;99.90
25346;DHT22;13300;51.032;3.710;2022-09-12T08:41:31;27.80;99.90
25346;DHT22;13300;51.032;3.710;2022-09-12T08:49:28;28.60;99.60
25346;DHT22;13300;51.032;3.710;2022-09-12T08:51:56;29.20;99.20
25346;DHT22;13300;51.032;3.710;2022-09-12T08:54:26;28.70;99.10
25346;DHT22;13300;51.032;3.710;2022-09-12T08:57:07;29.40;98.50
25346;DHT22;13300;51.032;3.710;2022-09-12T08:59:37;29.60;97.60
25346;DHT22;13300;51.032;3.710;2022-09-12T09:02:33;28.80;98.70
25346;DHT22;13300;51.032;3.710;2022-09-12T09:05:06;29.00;98.70
25346;DHT22;13300;51.032;3.710;2022-09-12T09:08:06;29.80;97.90
25346;DHT22;13300;51.032;3.710;2022-09-12T09:10:56;30.90;96.60
25346;DHT22;13300;51.032;3.710;2022-09-12T09:16:24;29.90;97.00
25346;DHT22;13300;51.032;3.710;2022-09-12T09:18:51;29.70;97.30
25346;DHT22;13300;51.032;3.710;2022-09-12T09:21:22;29.90;97.10
25346;DHT22;13300;51.032;3.710;2022-09-12T09:23:56;30.60;96.20
25346;DHT22;13300;51.032;3.710;2022-09-12T09:26:30;30.40;96.10
25346;DHT22;13300;51.032;3.710;2022-09-12T09:29:03;30.30;96.50
25346;DHT22;13300;51.032;3.710;2022-09-12T09:31:34;30.10;96.20
25346;DHT22;13300;51.032;3.710;2022-09-12T09:34:12;30.40;96.10
25346;DHT22;13300;51.032;3.710;2022-09-12T09:36:55;30.80;95.80
25346;DHT22;13300;51.032;3.710;2022-09-12T09:39:41;31.00;95.30
25346;DHT22;13300;51.032;3.710;2022-09-12T09:44:45;30.80;95.60
25346;DHT22;13300;51.032;3.710;2022-09-12T09:47:12;30.50;95.00
25346;DHT22;13300;51.032;3.710;2022-09-12T09:49:38;30.70;95.30
25346;DHT22;13300;51.032;3.710;2022-09-12T09:52:06;30.50;94.90
25346;DHT22;13300;51.032;3.710;2022-09-12T09:54:39;31.20;94.10
25346;DHT22;13300;51.032;3.710;2022-09-12T10:05:28;31.30;94.10
25346;DHT22;13300;51.032;3.710;2022-09-12T10:07:54;31.50;93.40
25346;DHT22;13300;51.032;3.710;2022-09-12T10:10:20;31.50;93.60
25346;DHT22;13300;51.032;3.710;2022-09-12T10:12:49;32.00;93.30
25346;DHT22;13300;51.032;3.710;2022-09-12T10:15:21;31.80;92.80
25346;DHT22;13300;51.032;3.710;2022-09-12T10:17:51;31.30;92.80
25346;DHT22;13300;51.032;3.710;2022-09-12T10:20:50;31.50;93.30
25346;DHT22;13300;51.032;3.710;2022-09-12T10:23:28;30.60;93.90
25346;DHT22;13300;51.032;3.710;2022-09-12T10:25:58;30.50;93.70
25346;DHT22;13300;51.032;3.710;2022-09-12T10:28:37;30.50;94.20
25346;DHT22;13300;51.032;3.710;2022-09-12T10:31:06;30.50;93.80
25346;DHT22;13300;51.032;3.710;2022-09-12T10:33:45;31.50;93.20
25346;DHT22;13300;51.032;3.710;2022-09-12T10:36:12;32.40;92.70
25346;DHT22;13300;51.032;3.710;2022-09-12T10:38:48;32.20;92.70
25346;DHT22;13300;51.032;3.710;2022-09-12T10:41:15;32.80;92.00
25346;DHT22;13300;51.032;3.710;2022-09-12T10:43:41;33.20;91.00
25346;DHT22;13300;51.032;3.710;2022-09-12T10:48:46;33.10;90.40
25346;DHT22;13300;51.032;3.710;2022-09-12T10:51:25;32.30;90.80
25346;DHT22;13300;51.032;3.710;2022-09-12T10:53:57;31.40;91.50
25346;DHT22;13300;51.032;3.710;2022-09-12T10:56:30;31.70;91.40
25346;DHT22;13300;51.032;3.710;2022-09-12T11:01:47;31.70;91.70
25346;DHT22;13300;51.032;3.710;2022-09-12T11:04:40;32.30;92.30
25346;DHT22;13300;51.032;3.710;2022-09-12T11:07:37;32.00;90.60
25346;DHT22;13300;51.032;3.710;2022-09-12T11:12:51;33.10;90.20
25346;DHT22;13300;51.032;3.710;2022-09-12T11:15:52;32.70;89.80
25346;DHT22;13300;51.032;3.710;2022-09-12T11:18:37;31.60;91.20
25346;DHT22;13300;51.032;3.710;2022-09-12T11:24:30;31.70;91.50
25346;DHT22;13300;51.032;3.710;2022-09-12T11:27:20;32.50;90.60
25346;DHT22;13300;51.032;3.710;2022-09-12T11:29:51;32.90;90.50
25346;DHT22;13300;51.032;3.710;2022-09-12T11:35:31;33.00;89.80
25346;DHT22;13300;51.032;3.710;2022-09-12T11:41:14;32.00;90.50
25346;DHT22;13300;51.032;3.710;2022-09-12T11:46:35;30.60;91.80
25346;DHT22;13300;51.032;3.710;2022-09-12T11:51:44;31.80;91.60
25346;DHT22;13300;51.032;3.710;2022-09-12T11:54:45;32.80;90.00
25346;DHT22;13300;51.032;3.710;2022-09-12T11:57:25;32.90;89.20
25346;DHT22;13300;51.032;3.710;2022-09-12T12:02:58;31.60;90.70
25346;DHT22;13300;51.032;3.710;2022-09-12T12:05:33;31.70;90.60
25346;DHT22;13300;51.032;3.710;2022-09-12T12:08:03;31.50;90.70
25346;DHT22;13300;51.032;3.710;2022-09-12T12:10:51;31.50;90.10
25346;DHT22;13300;51.032;3.710;2022-09-12T12:13:31;30.80;91.00
25346;DHT22;13300;51.032;3.710;2022-09-12T12:16:31;32.00;90.70
25346;DHT22;13300;51.032;3.710;2022-09-12T12:19:03;31.40;91.10
25346;DHT22;13300;51.032;3.710;2022-09-12T12:21:47;32.40;90.30
25346;DHT22;13300;51.032;3.710;2022-09-12T12:24:25;32.90;90.40
25346;DHT22;13300;51.032;3.710;2022-09-12T12:27:23;33.70;85.80
25346;DHT22;13300;51.032;3.710;2022-09-12T12:29:50;34.50;87.80
25346;DHT22;13300;51.032;3.710;2022-09-12T12:34:43;34.70;84.90
25346;DHT22;13300;51.032;3.710;2022-09-12T12:45:43;32.80;86.30
25346;DHT22;13300;51.032;3.710;2022-09-12T12:48:07;32.40;86.60
25346;DHT22;13300;51.032;3.710;2022-09-12T12:50:34;30.90;90.00
25346;DHT22;13300;51.032;3.710;2022-09-12T12:53:05;30.60;91.00
25346;DHT22;13300;51.032;3.710;2022-09-12T12:55:36;30.00;90.90
25346;DHT22;13300;51.032;3.710;2022-09-12T12:58:20;30.20;91.40
25346;DHT22;13300;51.032;3.710;2022-09-12T13:01:18;30.50;91.00
25346;DHT22;13300;51.032;3.710;2022-09-12T13:04:03;30.90;90.40
25346;DHT22;13300;51.032;3.710;2022-09-12T13:06:35;30.70;90.60
25346;DHT22;13300;51.032;3.710;2022-09-12T13:09:05;30.70;90.50
25346;DHT22;13300;51.032;3.710;2022-09-12T13:11:37;30.50;91.00
25346;DHT22;13300;51.032;3.710;2022-09-12T13:17:00;31.80;87.80
25346;DHT22;13300;51.032;3.710;2022-09-12T13:19:32;31.50;89.50
25346;DHT22;13300;51.032;3.710;2022-09-12T13:22:07;32.00;88.60
25346;DHT22;13300;51.032;3.710;2022-09-12T13:24:41;32.60;88.60
25346;DHT22;13300;51.032;3.710;2022-09-12T13:27:20;33.00;87.10
25346;DHT22;13300;51.032;3.710;2022-09-12T13:29:46;32.10;86.70
25346;DHT22;13300;51.032;3.710;2022-09-12T13:32:12;32.50;87.40
25346;DHT22;13300;51.032;3.710;2022-09-12T13:35:10;33.50;87.10
25346;DHT22;13300;51.032;3.710;2022-09-12T13:43:51;32.00;89.70
25346;DHT22;13300;51.032;3.710;2022-09-12T13:46:23;32.60;88.10
25346;DHT22;13300;51.032;3.710;2022-09-12T13:48:51;32.30;87.50
25346;DHT22;13300;51.032;3.710;2022-09-12T13:51:25;32.70;89.50
25346;DHT22;13300;51.032;3.710;2022-09-12T13:53:54;32.60;86.20
25346;DHT22;13300;51.032;3.710;2022-09-12T13:56:21;33.30;85.90
25346;DHT22;13300;51.032;3.710;2022-09-12T13:58:59;33.70;85.30
25346;DHT22;13300;51.032;3.710;2022-09-12T14:01:57;33.30;83.80
25346;DHT22;13300;51.032;3.710;2022-09-12T14:04:25;31.60;87.40
25346;DHT22;13300;51.032;3.710;2022-09-12T14:09:44;31.40;88.60
25346;DHT22;13300;51.032;3.710;2022-09-12T14:12:29;31.80;89.70
25346;DHT22;13300;51.032;3.710;2022-09-12T14:14:56;31.90;89.10
25346;DHT22;13300;51.032;3.710;2022-09-12T14:17:36;32.20;87.90
25346;DHT22;13300;51.032;3.710;2022-09-12T14:20:14;32.80;86.10
25346;DHT22;13300;51.032;3.710;2022-09-12T14:22:43;32.50;86.30
25346;DHT22;13300;51.032;3.710;2022-09-12T14:25:20;33.00;87.70
25346;DHT22;13300;51.032;3.710;2022-09-12T14:27:52;33.80;83.30
25346;DHT22;13300;51.032;3.710;2022-09-12T14:30:25;33.80;83.50
25346;DHT22;13300;51.032;3.710;2022-09-12T14:35:36;33.20;83.60
25346;DHT22;13300;51.032;3.710;2022-09-12T14:40:45;33.00;84.80
25346;DHT22;13300;51.032;3.710;2022-09-12T14:46:19;34.10;84.30
25346;DHT22;13300;51.032;3.710;2022-09-12T14:54:35;32.70;83.50
25346;DHT22;13300;51.032;3.710;2022-09-12T14:57:29;31.80;85.70
25346;DHT22;13300;51.032;3.710;2022-09-12T15:02:39;31.80;85.40
25346;DHT22;13300;51.032;3.710;2022-09-12T15:07:37;33.40;83.00
25346;DHT22;13300;51.032;3.710;2022-09-12T15:12:40;33.40;82.50
25346;DHT22;13300;51.032;3.710;2022-09-12T15:15:16;34.10;81.90
25346;DHT22;13300;51.032;3.710;2022-09-12T15:17:42;34.50;79.80
25346;DHT22;13300;51.032;3.710;2022-09-12T15:20:10;34.60;79.40
25346;DHT22;13300;51.032;3.710;2022-09-12T15:22:41;33.70;81.20
25346;DHT22;13300;51.032;3.710;2022-09-12T15:25:09;32.60;82.80
25346;DHT22;13300;51.032;3.710;2022-09-12T15:27:35;32.40;83.30
25346;DHT22;13300;51.032;3.710;2022-09-12T15:30:06;31.40;86.20
25346;DHT22;13300;51.032;3.710;2022-09-12T15:32:32;31.40;87.00
25346;DHT22;13300;51.032;3.710;2022-09-12T15:35:02;30.60;86.70
25346;DHT22;13300;51.032;3.710;2022-09-12T15:37:27;29.80;88.80
25346;DHT22;13300;51.032;3.710;2022-09-12T15:39:54;29.50;90.10
25346;DHT22;13300;51.032;3.710;2022-09-12T15:42:27;29.30;90.80
25346;DHT22;13300;51.032;3.710;2022-09-12T15:44:54;29.00;91.10
25346;DHT22;13300;51.032;3.710;2022-09-12T15:47:19;29.30;90.70
25346;DHT22;13300;51.032;3.710;2022-09-12T15:49:47;29.30;90.60
25346;DHT22;13300;51.032;3.710;2022-09-12T15:52:14;28.90;90.40
25346;DHT22;13300;51.032;3.710;2022-09-12T15:54:41;28.20;91.20
25346;DHT22;13300;51.032;3.710;2022-09-12T15:57:07;28.00;92.20
25346;DHT22;13300;51.032;3.710;2022-09-12T15:59:34;27.50;92.70
25346;DHT22;13300;51.032;3.710;2022-09-12T16:02:00;27.30;92.40
25346;DHT22;13300;51.032;3.710;2022-09-12T16:04:28;27.10;92.60
25346;DHT22;13300;51.032;3.710;2022-09-12T16:06:55;27.20;92.90
25346;DHT22;13300;51.032;3.710;2022-09-12T16:09:23;27.30;92.60
25346;DHT22;13300;51.032;3.710;2022-09-12T16:11:49;27.30;92.60
25346;DHT22;13300;51.032;3.710;2022-09-12T16:14:17;27.30;93.00
25346;DHT22;13300;51.032;3.710;2022-09-12T16:16:44;27.10;92.70
25346;DHT22;13300;51.032;3.710;2022-09-12T16:19:15;26.90;92.90
25346;DHT22;13300;51.032;3.710;2022-09-12T16:21:41;27.20;93.20
25346;DHT22;13300;51.032;3.710;2022-09-12T16:24:07;27.30;93.10
25346;DHT22;13300;51.032;3.710;2022-09-12T16:26:33;27.30;92.70
25346;DHT22;13300;51.032;3.710;2022-09-12T16:28:59;27.40;92.80
25346;DHT22;13300;51.032;3.710;2022-09-12T16:31:26;27.20;93.40
25346;DHT22;13300;51.032;3.710;2022-09-12T16:33:52;27.00;93.00
25346;DHT22;13300;51.032;3.710;2022-09-12T16:36:20;26.80;93.30
25346;DHT22;13300;51.032;3.710;2022-09-12T16:38:50;26.50;93.70
25346;DHT22;13300;51.032;3.710;2022-09-12T16:41:18;26.30;94.10
25346;DHT22;13300;51.032;3.710;2022-09-12T16:43:44;26.10;94.60
25346;DHT22;13300;51.032;3.710;2022-09-12T16:46:16;26.10;94.30
25346;DHT22;13300;51.032;3.710;2022-09-12T16:48:47;25.90;94.60
25346;DHT22;13300;51.032;3.710;2022-09-12T16:51:14;26.00;95.10
25346;DHT22;13300;51.032;3.710;2022-09-12T16:53:41;25.90;94.70
25346;DHT22;13300;51.032;3.710;2022-09-12T16:56:08;25.90;94.70
25346;DHT22;13300;51.032;3.710;2022-09-12T16:58:35;25.80;94.90
25346;DHT22;13300;51.032;3.710;2022-09-12T17:01:13;25.70;95.10
25346;DHT22;13300;51.032;3.710;2022-09-12T17:03:56;25.70;95.00
25346;DHT22;13300;51.032;3.710;2022-09-12T17:06:23;25.90;95.20
25346;DHT22;13300;51.032;3.710;2022-09-12T17:08:51;25.90;95.30
25346;DHT22;13300;51.032;3.710;2022-09-12T17:11:22;26.00;95.90
25346;DHT22;13300;51.032;3.710;2022-09-12T17:13:53;26.00;95.80
25346;DHT22;13300;51.032;3.710;2022-09-12T17:16:19;26.20;95.20
25346;DHT22;13300;51.032;3.710;2022-09-12T17:18:45;26.20;95.30
25346;DHT22;13300;51.032;3.710;2022-09-12T17:21:11;25.90;95.50
25346;DHT22;13300;51.032;3.710;2022-09-12T17:23:38;25.80;96.00
25346;DHT22;13300;51.032;3.710;2022-09-12T17:26:04;25.70;96.10
25346;DHT22;13300;51.032;3.710;2022-09-12T17:28:30;25.60;96.30
25346;DHT22;13300;51.032;3.710;2022-09-12T17:31:01;25.60;96.30
25346;DHT22;13300;51.032;3.710;2022-09-12T17:33:28;25.60;96.50
25346;DHT22;13300;51.032;3.710;2022-09-12T17:35:54;25.60;96.20
25346;DHT22;13300;51.032;3.710;2022-09-12T17:38:24;25.60;96.70
25346;DHT22;13300;51.032;3.710;2022-09-12T17:40:50;25.60;97.00
25346;DHT22;13300;51.032;3.710;2022-09-12T17:43:18;25.70;97.00
25346;DHT22;13300;51.032;3.710;2022-09-12T17:45:44;25.60;96.70
25346;DHT22;13300;51.032;3.710;2022-09-12T17:48:10;25.50;96.90
25346;DHT22;13300;51.032;3.710;2022-09-12T17:50:37;25.60;98.00
25346;DHT22;13300;51.032;3.710;2022-09-12T17:53:07;25.60;97.90
25346;DHT22;13300;51.032;3.710;2022-09-12T17:55:39;25.50;97.90
25346;DHT22;13300;51.032;3.710;2022-09-12T17:58:06;25.40;97.70
25346;DHT22;13300;51.032;3.710;2022-09-12T18:00:33;25.30;97.80
25346;DHT22;13300;51.032;3.710;2022-09-12T18:03:24;25.20;98.50
25346;DHT22;13300;51.032;3.710;2022-09-12T18:05:54;25.20;99.50